createdAt,value
2023-01-19T00:01:00.449Z,98653.84
2023-01-19T00:04:04.688Z,98646.78
2023-01-19T00:07:09.992Z,98658.25
2023-01-19T00:10:13.157Z,98653.72
2023-01-19T00:13:16.314Z,98643.41
2023-01-19T00:16:23.009Z,98646.97
2023-01-19T00:19:25.655Z,98642.50
2023-01-19T00:22:28.800Z,98644.31
2023-01-19T00:25:31.641Z,98644.00
2023-01-19T00:28:35.019Z,98650.31
2023-01-19T00:31:38.091Z,98648.44
2023-01-19T00:34:42.734Z,98647.56
2023-01-19T00:37:46.176Z,98638.97
2023-01-19T00:40:50.569Z,98653.72
2023-01-19T00:43:55.069Z,98650.22
2023-01-19T00:46:58.162Z,98646.69
2023-01-19T00:50:00.807Z,98656.25
2023-01-19T00:53:03.957Z,98648.50
2023-01-19T00:56:07.098Z,98646.69
2023-01-19T00:59:11.030Z,98642.00
2023-01-19T01:02:13.711Z,98641.25
2023-01-19T01:05:17.843Z,98628.31
2023-01-19T01:08:20.489Z,98631.56
2023-01-19T01:11:23.720Z,98638.28
2023-01-19T01:14:26.288Z,98640.84
2023-01-19T01:17:29.465Z,98629.84
2023-01-19T01:20:34.526Z,98618.53
2023-01-19T01:23:39.767Z,98622.03
2023-01-19T01:26:42.280Z,98636.75
2023-01-19T01:29:48.553Z,98640.06
2023-01-19T01:32:51.125Z,98642.84
2023-01-19T01:35:54.321Z,98636.06
2023-01-19T01:38:57.314Z,98627.28
2023-01-19T01:42:00.350Z,98632.44
2023-01-19T01:45:07.709Z,98626.34
2023-01-19T01:48:18.093Z,98633.00
2023-01-19T01:51:46.940Z,98641.00
2023-01-19T01:54:50.165Z,98637.47
2023-01-19T01:58:01.375Z,98634.94
2023-01-19T02:01:24.653Z,98646.19
2023-01-19T02:04:32.288Z,98653.72
2023-01-19T02:08:15.851Z,98663.97
2023-01-19T02:11:37.459Z,98674.44
2023-01-19T02:14:40.243Z,98669.19
2023-01-19T02:17:43.558Z,98657.16
2023-01-19T02:21:08.517Z,98632.09
2023-01-19T02:24:11.681Z,98601.88
2023-01-19T02:27:15.883Z,98608.72
2023-01-19T02:30:19.268Z,98638.00
2023-01-19T02:33:22.271Z,98662.13
2023-01-19T02:36:30.573Z,98679.31
2023-01-19T02:39:39.347Z,98669.97
2023-01-19T02:42:53.251Z,98656.09
2023-01-19T02:45:56.368Z,98644.13
2023-01-19T02:49:00.501Z,98645.81
2023-01-19T02:52:04.312Z,98623.63
2023-01-19T02:55:22.406Z,98613.13
2023-01-19T02:58:44.211Z,98617.25
2023-01-19T03:01:54.363Z,98633.34
2023-01-19T03:05:17.508Z,98650.63
2023-01-19T03:08:26.296Z,98653.06
2023-01-19T03:11:35.214Z,98654.03
2023-01-19T03:14:43.301Z,98653.25
2023-01-19T03:17:49.492Z,98653.53
2023-01-19T03:20:55.752Z,98666.28
2023-01-19T03:24:03.609Z,98679.94
2023-01-19T03:27:30.144Z,98698.69
2023-01-19T03:30:40.022Z,98686.59
2023-01-19T03:33:48.820Z,98653.06
2023-01-19T03:36:59.523Z,98643.44
2023-01-19T03:40:02.273Z,98635.03
2023-01-19T03:43:06.414Z,98602.03
2023-01-19T03:46:11.050Z,98590.69
2023-01-19T03:49:14.143Z,98594.88
2023-01-19T03:52:17.003Z,98606.09
2023-01-19T03:55:19.791Z,98623.22
2023-01-19T03:58:22.668Z,98624.94
2023-01-19T04:01:25.640Z,98629.31
2023-01-19T04:04:28.560Z,98631.84
2023-01-19T04:07:31.752Z,98651.97
2023-01-19T04:10:34.605Z,98665.34
2023-01-19T04:13:38.450Z,98627.53
2023-01-19T04:16:41.248Z,98661.63
2023-01-19T04:19:45.199Z,98648.09
2023-01-19T04:22:49.098Z,98664.97
2023-01-19T04:26:00.579Z,98667.59
2023-01-19T04:29:03.450Z,98651.19
2023-01-19T04:32:06.245Z,98653.66
2023-01-19T04:35:09.560Z,98651.81
2023-01-19T04:38:12.441Z,98653.31
2023-01-19T04:41:15.238Z,98647.31
2023-01-19T04:44:18.165Z,98639.69
2023-01-19T04:47:20.962Z,98630.25
2023-01-19T04:50:23.746Z,98635.63
2023-01-19T04:53:26.517Z,98633.66
2023-01-19T04:56:29.695Z,98618.91
2023-01-19T04:59:32.510Z,98644.91
2023-01-19T05:02:35.615Z,98647.91
2023-01-19T05:05:38.517Z,98656.59
2023-01-19T05:08:41.703Z,98664.12
2023-01-19T05:11:44.631Z,98679.16
2023-01-19T05:14:47.456Z,98681.72
2023-01-19T05:17:50.398Z,98663.53
2023-01-19T05:20:53.197Z,98670.47
2023-01-19T05:23:56.085Z,98692.06
2023-01-19T05:26:59.501Z,98691.88
2023-01-19T05:30:02.261Z,98697.97
2023-01-19T05:33:05.529Z,98699.81
2023-01-19T05:36:08.513Z,98707.38
2023-01-19T05:39:11.471Z,98705.66
2023-01-19T05:42:14.327Z,98709.00
2023-01-19T05:45:17.273Z,98704.16
2023-01-19T05:48:20.072Z,98692.84
2023-01-19T05:51:22.867Z,98694.69
2023-01-19T05:54:25.691Z,98683.37
2023-01-19T05:57:28.443Z,98691.00
2023-01-19T06:00:31.233Z,98683.28
2023-01-19T06:03:35.695Z,98659.56
2023-01-19T06:06:38.311Z,98649.09
2023-01-19T06:09:41.369Z,98665.50
2023-01-19T06:12:44.065Z,98655.06
2023-01-19T06:15:47.379Z,98664.09
2023-01-19T06:18:50.101Z,98646.06
2023-01-19T06:21:53.228Z,98655.28
2023-01-19T06:24:55.768Z,98662.19
2023-01-19T06:27:58.863Z,98650.13
2023-01-19T06:31:01.893Z,98638.94
2023-01-19T06:34:05.101Z,98631.13
2023-01-19T06:37:07.641Z,98649.09
2023-01-19T06:40:13.643Z,98662.00
2023-01-19T06:43:17.031Z,98681.78
2023-01-19T06:46:20.120Z,98685.00
2023-01-19T06:49:22.644Z,98692.22
2023-01-19T06:52:25.826Z,98700.34
2023-01-19T06:55:28.427Z,98690.72
2023-01-19T06:58:32.077Z,98682.09
2023-01-19T07:01:35.590Z,98685.16
2023-01-19T07:04:38.913Z,98680.56
2023-01-19T07:07:43.252Z,98677.13
2023-01-19T07:11:23.657Z,98669.44
2023-01-19T07:14:08.981Z,98677.34
2023-01-19T07:17:12.872Z,98670.56
2023-01-19T07:20:15.567Z,98652.63
2023-01-19T07:23:18.638Z,98672.38
2023-01-19T07:26:22.097Z,98689.72
2023-01-19T07:29:25.872Z,98699.25
2023-01-19T07:32:29.237Z,98705.34
2023-01-19T07:35:32.680Z,98704.78
2023-01-19T07:38:35.206Z,98695.09
2023-01-19T07:41:38.485Z,98676.59
2023-01-19T07:44:41.225Z,98691.97
2023-01-19T07:47:45.420Z,98709.09
2023-01-19T07:50:48.436Z,98698.91
2023-01-19T07:53:51.524Z,98706.97
2023-01-19T07:56:55.035Z,98714.56
2023-01-19T07:59:58.269Z,98722.97
2023-01-19T08:03:02.044Z,98715.22
2023-01-19T08:06:06.777Z,98727.22
2023-01-19T08:09:10.046Z,98713.47
2023-01-19T08:12:13.162Z,98715.38
2023-01-19T08:15:15.987Z,98698.25
2023-01-19T08:18:19.101Z,98695.69
2023-01-19T08:21:21.556Z,98693.94
2023-01-19T08:24:29.235Z,98688.19
2023-01-19T08:27:31.847Z,98687.22
2023-01-19T08:30:35.820Z,98692.03
2023-01-19T08:33:38.387Z,98694.41
2023-01-19T08:36:41.524Z,98705.59
2023-01-19T08:39:44.024Z,98705.59
2023-01-19T08:42:47.125Z,98703.69
2023-01-19T08:45:53.682Z,98710.59
2023-01-19T08:48:56.973Z,98706.34
2023-01-19T08:51:59.564Z,98713.59
2023-01-19T08:55:02.751Z,98713.00
2023-01-19T08:58:07.921Z,98714.00
2023-01-19T09:01:17.063Z,98708.66
2023-01-19T09:04:19.840Z,98706.88
2023-01-19T09:07:23.030Z,98715.75
2023-01-19T09:10:25.525Z,98703.38
2023-01-19T09:13:28.874Z,98699.06
2023-01-19T09:16:31.473Z,98700.06
2023-01-19T09:19:35.146Z,98695.91
2023-01-19T09:22:39.689Z,98706.19
2023-01-19T09:25:45.229Z,98711.50
2023-01-19T09:28:48.041Z,98718.56
2023-01-19T09:31:51.315Z,98700.44
2023-01-19T09:34:55.105Z,98703.84
2023-01-19T09:37:59.194Z,98712.44
2023-01-19T09:41:02.034Z,98716.88
2023-01-19T09:44:05.544Z,98710.22
2023-01-19T09:47:15.302Z,98709.72
2023-01-19T09:50:28.710Z,98699.25
2023-01-19T09:53:59.588Z,98687.97
2023-01-19T09:57:02.952Z,98711.06
2023-01-19T10:00:16.085Z,98709.53
2023-01-19T10:03:20.845Z,98709.41
2023-01-19T10:06:23.606Z,98718.00
2023-01-19T10:09:56.029Z,98718.91
2023-01-19T10:13:08.249Z,98724.03
2023-01-19T10:16:25.665Z,98730.06
2023-01-19T10:19:43.724Z,98730.09
2023-01-19T10:22:49.803Z,98730.16
2023-01-19T10:25:53.069Z,98728.28
2023-01-19T10:29:02.948Z,98735.16
2023-01-19T10:32:17.437Z,98728.00
2023-01-19T10:35:25.760Z,98728.72
2023-01-19T10:38:30.428Z,98736.31
2023-01-19T10:41:42.665Z,98736.16
2023-01-19T10:44:46.035Z,98740.72
2023-01-19T10:47:49.804Z,98749.97
2023-01-19T10:51:03.065Z,98760.91
2023-01-19T10:54:13.196Z,98752.09
2023-01-19T10:57:28.054Z,98758.84
2023-01-19T11:00:38.812Z,98764.09
2023-01-19T11:03:41.725Z,98759.56
2023-01-19T11:06:44.843Z,98754.38
2023-01-19T11:09:48.636Z,98766.41
2023-01-19T11:12:55.605Z,98767.16
2023-01-19T11:16:05.350Z,98755.94
2023-01-19T11:19:21.779Z,98755.03
2023-01-19T11:22:33.212Z,98755.38
2023-01-19T11:25:37.267Z,98754.31
2023-01-19T11:28:44.797Z,98753.38
2023-01-19T11:31:49.253Z,98749.16
2023-01-19T11:34:51.854Z,98751.72
2023-01-19T11:38:11.661Z,98755.44
2023-01-19T11:41:24.779Z,98761.28
2023-01-19T11:44:32.692Z,98770.66
2023-01-19T11:47:49.719Z,98768.00
2023-01-19T11:50:54.550Z,98766.25
2023-01-19T11:53:57.262Z,98765.13
2023-01-19T12:00:17.532Z,98776.50
2023-01-19T12:03:39.645Z,98779.22
2023-01-19T12:06:47.837Z,98786.22
2023-01-19T12:10:01.126Z,98785.59
2023-01-19T12:13:04.334Z,98790.59
2023-01-19T12:16:13.726Z,98795.56
2023-01-19T12:19:22.462Z,98803.31
2023-01-19T12:22:29.120Z,98797.28
2023-01-19T12:25:40.613Z,98811.91
2023-01-19T12:28:47.352Z,98813.09
2023-01-19T12:32:14.900Z,98816.56
2023-01-19T12:36:00.912Z,98825.00
2023-01-19T12:39:16.901Z,98826.78
2023-01-19T12:42:21.466Z,98822.94
2023-01-19T12:45:29.369Z,98827.75
2023-01-19T12:48:32.952Z,98826.69
2023-01-19T12:51:36.918Z,98842.09
2023-01-19T12:54:49.546Z,98848.91
2023-01-19T12:58:00.956Z,98843.16
2023-01-19T13:01:19.980Z,98847.47
2023-01-19T13:04:33.962Z,98856.72
2023-01-19T13:08:02.287Z,98856.91
2023-01-19T13:11:10.785Z,98862.97
2023-01-19T13:14:36.976Z,98881.22
2023-01-19T13:17:51.154Z,98889.41
2023-01-19T13:21:04.588Z,98899.91
2023-01-19T13:24:10.588Z,98905.94
2023-01-19T13:27:14.008Z,98910.66
2023-01-19T13:30:27.643Z,98917.44
2023-01-19T13:33:40.860Z,98923.59
2023-01-19T13:36:51.733Z,98915.00
2023-01-19T13:39:55.699Z,98920.16
2023-01-19T13:42:59.528Z,98927.88
2023-01-19T13:46:04.252Z,98940.25
2023-01-19T13:49:26.238Z,98943.44
2023-01-19T13:52:29.725Z,98947.13
2023-01-19T13:55:32.334Z,98951.38
2023-01-19T13:58:35.654Z,98958.97
2023-01-19T14:01:41.154Z,98957.00
2023-01-19T14:04:44.558Z,98969.12
2023-01-19T14:07:47.473Z,98968.75
2023-01-19T14:10:56.524Z,98973.34
2023-01-19T14:13:59.253Z,98968.00
2023-01-19T14:17:02.571Z,98962.69
2023-01-19T14:20:05.773Z,98956.31
2023-01-19T14:23:40.830Z,98944.22
2023-01-19T14:26:48.433Z,98945.25
2023-01-19T14:29:54.875Z,98944.72
2023-01-19T14:32:57.429Z,98958.16
2023-01-19T14:36:20.096Z,98970.72
2023-01-19T14:39:26.382Z,98978.53
2023-01-19T14:42:35.861Z,98977.13
2023-01-19T14:45:41.382Z,98981.56
2023-01-19T14:48:49.172Z,98991.19
2023-01-19T14:51:52.153Z,98997.59
2023-01-19T14:54:56.125Z,99007.06
2023-01-19T14:57:58.625Z,99005.00
2023-01-19T15:01:02.722Z,99016.78
2023-01-19T15:04:05.338Z,99025.41
2023-01-19T15:07:17.084Z,99043.81
2023-01-19T15:10:22.630Z,99056.34
2023-01-19T15:13:27.510Z,99076.16
2023-01-19T15:16:34.189Z,99085.84
2023-01-19T15:19:37.435Z,99080.41
2023-01-19T15:22:40.105Z,99060.47
2023-01-19T15:25:43.239Z,99065.47
2023-01-19T15:28:47.008Z,99052.19
2023-01-19T15:31:50.917Z,99046.97
2023-01-19T15:34:53.646Z,99058.09
2023-01-19T15:37:56.857Z,99062.66
2023-01-19T15:40:59.720Z,99072.53
2023-01-19T15:44:05.051Z,99085.66
2023-01-19T15:47:07.622Z,99080.88
2023-01-19T15:50:11.242Z,99079.88
2023-01-19T15:53:19.381Z,99084.16
2023-01-19T15:56:28.425Z,99093.59
2023-01-19T15:59:31.061Z,99096.13
2023-01-19T16:02:34.259Z,99097.19
2023-01-19T16:05:42.981Z,99117.53
2023-01-19T16:08:46.241Z,99143.66
2023-01-19T16:11:49.317Z,99139.19
2023-01-19T16:14:52.224Z,99143.50
2023-01-19T16:17:55.148Z,99149.03
2023-01-19T16:20:58.204Z,99159.06
2023-01-19T16:24:01.041Z,99166.53
2023-01-19T16:27:04.114Z,99177.16
2023-01-19T16:30:07.749Z,99187.56
2023-01-19T16:33:11.757Z,99180.63
2023-01-19T16:36:19.940Z,99188.22
2023-01-19T16:39:22.974Z,99198.47
2023-01-19T16:42:26.042Z,99211.81
2023-01-19T16:45:28.863Z,99217.53
2023-01-19T16:48:34.972Z,99238.25
2023-01-19T16:51:38.510Z,99245.09
2023-01-19T16:54:43.100Z,99248.56
2023-01-19T16:57:45.986Z,99258.25
2023-01-19T17:00:49.085Z,99255.53
2023-01-19T17:03:52.140Z,99259.75
2023-01-19T17:06:55.507Z,99262.13
2023-01-19T17:09:58.880Z,99264.84
2023-01-19T17:13:03.986Z,99276.41
2023-01-19T17:16:07.705Z,99276.75
2023-01-19T17:19:15.669Z,99285.16
2023-01-19T17:22:21.430Z,99287.66
2023-01-19T17:25:24.305Z,99292.66
2023-01-19T17:28:27.671Z,99304.56
2023-01-19T17:31:32.260Z,99301.34
2023-01-19T17:34:35.254Z,99303.38
2023-01-19T17:37:38.075Z,99318.72
2023-01-19T17:40:41.022Z,99319.34
2023-01-19T17:43:44.590Z,99307.78
2023-01-19T17:46:47.472Z,99308.72
2023-01-19T17:49:50.367Z,99320.13
2023-01-19T17:52:53.185Z,99320.03
2023-01-19T17:55:55.953Z,99323.94
2023-01-19T17:58:59.397Z,99330.34
2023-01-19T18:02:02.183Z,99327.44
2023-01-19T18:05:05.719Z,99334.59
2023-01-19T18:08:08.497Z,99332.38
2023-01-19T18:11:13.342Z,99334.09
2023-01-19T18:14:16.048Z,99334.34
2023-01-19T18:17:19.668Z,99335.22
2023-01-19T18:20:22.194Z,99342.66
2023-01-19T18:23:25.813Z,99344.44
2023-01-19T18:26:29.310Z,99347.25
2023-01-19T18:29:32.518Z,99333.59
2023-01-19T18:32:36.105Z,99343.19
2023-01-19T18:35:39.633Z,99345.59
2023-01-19T18:38:42.763Z,99352.41
2023-01-19T18:41:45.844Z,99347.28
2023-01-19T18:44:48.419Z,99350.63
2023-01-19T18:47:51.531Z,99351.25
2023-01-19T18:50:54.260Z,99349.22
2023-01-19T18:53:58.694Z,99355.47
2023-01-19T18:57:01.271Z,99359.59
2023-01-19T19:00:05.877Z,99359.94
2023-01-19T19:03:10.373Z,99364.78
2023-01-19T19:06:14.692Z,99368.16
2023-01-19T19:09:17.254Z,99364.31
2023-01-19T19:12:20.986Z,99361.97
2023-01-19T19:15:23.937Z,99376.44
2023-01-19T19:18:26.880Z,99378.38
2023-01-19T19:21:29.393Z,99379.97
2023-01-19T19:24:32.660Z,99380.25
2023-01-19T19:27:35.693Z,99390.81
2023-01-19T19:30:39.314Z,99399.87
2023-01-19T19:33:42.017Z,99404.59
2023-01-19T19:36:45.245Z,99406.50
2023-01-19T19:39:48.145Z,99407.84
2023-01-19T19:42:51.151Z,99423.00
2023-01-19T19:46:01.223Z,99423.91
2023-01-19T19:49:04.417Z,99431.06
2023-01-19T19:52:06.999Z,99437.31
2023-01-19T19:55:10.971Z,99441.59
2023-01-19T19:58:13.532Z,99442.47
2023-01-19T20:01:24.131Z,99432.97
2023-01-19T20:04:28.981Z,99443.28
2023-01-19T20:07:32.013Z,99443.94
2023-01-19T20:10:34.946Z,99455.13
2023-01-19T20:13:39.204Z,99452.47
2023-01-19T20:16:43.074Z,99449.41
2023-01-19T20:19:47.640Z,99448.94
2023-01-19T20:22:50.465Z,99439.75
2023-01-19T20:25:53.295Z,99435.63
2023-01-19T20:29:03.013Z,99444.66
2023-01-19T20:32:07.985Z,99442.38
2023-01-19T20:35:11.274Z,99453.59
2023-01-19T20:38:14.181Z,99463.50
2023-01-19T20:41:17.769Z,99454.97
2023-01-19T20:44:23.125Z,99453.50
2023-01-19T20:47:25.956Z,99455.38
2023-01-19T20:50:28.894Z,99467.41
2023-01-19T20:53:32.169Z,99470.84
2023-01-19T20:56:35.115Z,99462.59
2023-01-19T20:59:38.918Z,99452.28
2023-01-19T21:02:41.785Z,99447.91
2023-01-19T21:05:48.492Z,99438.63
2023-01-19T21:08:51.911Z,99448.81
2023-01-19T21:11:57.299Z,99450.56
2023-01-19T21:15:00.546Z,99455.19
2023-01-19T21:18:03.741Z,99453.16
2023-01-19T21:21:09.108Z,99456.41
2023-01-19T21:24:13.827Z,99462.25
2023-01-19T21:27:16.712Z,99456.81
2023-01-19T21:30:19.730Z,99458.88
2023-01-19T21:33:22.944Z,99463.22
2023-01-19T21:36:26.302Z,99466.78
2023-01-19T21:39:29.137Z,99474.09
2023-01-19T21:42:31.940Z,99487.78
2023-01-19T21:45:34.778Z,99502.97
2023-01-19T21:48:37.760Z,99510.59
2023-01-19T21:51:40.609Z,99542.16
2023-01-19T21:54:43.681Z,99560.38
2023-01-19T21:57:46.553Z,99581.25
2023-01-19T22:00:50.334Z,99595.25
2023-01-19T22:03:57.548Z,99586.31
2023-01-19T22:07:00.111Z,99561.25
2023-01-19T22:10:04.315Z,99540.62
2023-01-19T22:13:07.739Z,99517.59
2023-01-19T22:16:14.351Z,99519.22
2023-01-19T22:19:17.037Z,99530.41
2023-01-19T22:22:20.202Z,99538.53
2023-01-19T22:25:27.775Z,99539.19
2023-01-19T22:28:31.304Z,99526.28
2023-01-19T22:31:34.037Z,99523.94
2023-01-19T22:34:37.228Z,99533.22
2023-01-19T22:37:39.757Z,99534.69
2023-01-19T22:40:42.860Z,99535.00
2023-01-19T22:43:45.757Z,99526.28
2023-01-19T22:46:49.903Z,99528.31
2023-01-19T22:49:52.641Z,99519.63
2023-01-19T22:52:55.864Z,99528.63
2023-01-19T22:55:58.353Z,99523.47
2023-01-19T22:59:07.873Z,99523.31
2023-01-19T23:02:12.369Z,99524.12
2023-01-19T23:05:15.985Z,99520.91
2023-01-19T23:08:18.716Z,99521.03
2023-01-19T23:11:24.793Z,99508.47
2023-01-19T23:14:27.324Z,99499.44
2023-01-19T23:17:30.396Z,99484.81
2023-01-19T23:20:32.928Z,99482.22
2023-01-19T23:23:36.377Z,99475.63
2023-01-19T23:26:39.467Z,99480.28
2023-01-19T23:29:42.696Z,99485.28
2023-01-19T23:32:49.714Z,99481.16
2023-01-19T23:35:55.545Z,99485.25
2023-01-19T23:39:01.221Z,99489.63
2023-01-19T23:42:05.155Z,99502.19
2023-01-19T23:45:08.399Z,99501.47
2023-01-19T23:48:11.476Z,99515.16
2023-01-19T23:51:25.561Z,99516.28
2023-01-19T23:54:28.743Z,99521.84
2023-01-19T23:57:31.268Z,99521.00
